Time;durP1;ratioP1;P1;durP2;ratioP2;P2;SDS_P1;SDS_P2;PMS_P1;PMS_P2;Temp;Humidity;BMP_temperature;BMP_pressure;BME280_temperature;BME280_humidity;BME280_pressure;Samples;Min_cycle;Max_cycle;Signal;HPM_P1;HPM_P2
2022/04/13 05:12:56;;;;;;;18.38;11.35;;;;;;;;;;6168076;23;20123;-84
2022/04/13 05:15:22;;;;;;;17.05;11.52;;;;;;;;;;6217175;23;20020;-84
2022/04/13 05:17:47;;;;;;;17.90;11.65;;;;;;;;;;6190990;23;20554;-82
2022/04/13 05:20:13;;;;;;;17.20;11.43;;;;;;;;;;6217494;23;20379;-86
2022/04/13 05:22:38;;;;;;;21.15;11.43;;;;;;;;;;6217475;23;20412;-84
2022/04/13 05:25:07;;;;;;;20.55;10.75;;;;;;;;;;6217700;23;20420;-85
2022/04/13 05:27:32;;;;;;;18.25;11.25;;;;;;;;;;6216995;23;20079;-84
2022/04/13 05:29:58;;;;;;;16.17;10.40;;;;;;;;;;6217519;23;20001;-84
2022/04/13 05:32:23;;;;;;;18.77;11.77;;;;;;;;;;6217497;23;20004;-83
2022/04/13 05:34:49;;;;;;;21.35;13.50;;;;;;;;;;6217463;23;19997;-84
2022/04/13 05:37:14;;;;;;;18.75;11.60;;;;;;;;;;6217403;23;20013;-79
2022/04/13 05:39:40;;;;;;;16.02;10.90;;;;;;;;;;6217618;23;20004;-81
2022/04/13 05:42:05;;;;;;;17.08;11.55;;;;;;;;;;6217284;23;20083;-80
2022/04/13 05:44:31;;;;;;;16.98;10.38;;;;;;;;;;6217703;23;20360;-86
2022/04/13 05:46:56;;;;;;;16.23;11.48;;;;;;;;;;6190521;23;20000;-85
2022/04/13 05:49:22;;;;;;;19.90;11.73;;;;;;;;;;6216914;23;20460;-84
2022/04/13 05:51:47;;;;;;;17.58;11.90;;;;;;;;;;6217057;23;20001;-90
2022/04/13 05:54:12;;;;;;;18.13;12.23;;;;;;;;;;6217265;23;20000;-83
2022/04/13 05:56:38;;;;;;;18.83;11.80;;;;;;;;;;6190638;23;20428;-82
2022/04/13 05:59:03;;;;;;;19.98;12.00;;;;;;;;;;6217464;23;20026;-85
2022/04/13 06:01:29;;;;;;;18.05;11.85;;;;;;;;;;6217249;23;20091;-82
2022/04/13 06:03:54;;;;;;;18.65;11.25;;;;;;;;;;6217340;23;20090;-83
2022/04/13 06:06:21;;;;;;;16.60;11.23;;;;;;;;;;6216978;23;20001;-84
2022/04/13 09:56:56;;;;;;;18.65;13.80;;;;;;;;;;6203829;23;20107;-83
2022/04/13 09:59:30;;;;;;;19.08;12.50;;;;;;;;;;6190482;23;20048;-86
2022/04/13 10:01:57;;;;;;;19.55;13.50;;;;;;;;;;6217311;23;20416;-83
2022/04/13 10:04:26;;;;;;;17.38;12.93;;;;;;;;;;6217185;23;20071;-86
2022/04/13 10:06:52;;;;;;;17.80;12.25;;;;;;;;;;6217082;23;20000;-81
2022/04/13 10:09:19;;;;;;;16.08;12.32;;;;;;;;;;6217425;23;20011;-81
2022/04/13 10:12:03;;;;;;;18.15;13.85;;;;;;;;;;6217128;23;20398;-80
2022/04/13 10:14:29;;;;;;;18.75;13.25;;;;;;;;;;6217040;23;20005;-83
2022/04/13 10:17:05;;;;;;;17.98;13.32;;;;;;;;;;6190459;23;20004;-81
2022/04/13 10:19:30;;;;;;;19.00;15.35;;;;;;;;;;6216929;23;19997;-81
2022/04/13 10:21:59;;;;;;;19.08;14.75;;;;;;;;;;6217301;23;20024;-83
2022/04/13 10:24:27;;;;;;;19.52;14.30;;;;;;;;;;6216853;23;20320;-81
2022/04/13 10:27:07;;;;;;;17.52;13.52;;;;;;;;;;6217150;23;20001;-81
2022/04/13 10:29:35;;;;;;;20.35;14.85;;;;;;;;;;6216934;23;20082;-81
2022/04/13 10:32:25;;;;;;;18.48;14.60;;;;;;;;;;6217278;23;20072;-80
2022/04/13 10:34:52;;;;;;;22.70;14.93;;;;;;;;;;6195401;23;20031;-81
2022/04/13 10:37:20;;;;;;;21.52;15.98;;;;;;;;;;6217384;23;20332;-87
2022/04/13 10:39:47;;;;;;;21.55;14.65;;;;;;;;;;6190294;23;20027;-82
2022/04/13 10:42:15;;;;;;;20.55;14.35;;;;;;;;;;6216692;23;20009;-82
2022/04/13 10:44:53;;;;;;;17.35;12.93;;;;;;;;;;6216380;23;20424;-83
2022/04/13 10:47:25;;;;;;;18.50;13.40;;;;;;;;;;6216662;23;20009;-82
2022/04/13 10:49:55;;;;;;;18.88;14.30;;;;;;;;;;6217078;23;20005;-83
2022/04/13 10:53:01;;;;;;;17.92;13.90;;;;;;;;;;6216583;23;20068;-86
2022/04/13 10:55:29;;;;;;;16.52;13.57;;;;;;;;;;6095483;23;20007;-83
2022/04/13 10:58:03;;;;;;;18.75;12.75;;;;;;;;;;6193861;23;20071;-85
2022/04/13 11:00:33;;;;;;;17.98;13.98;;;;;;;;;;6216481;23;20079;-84
2022/04/13 11:03:06;;;;;;;19.73;14.05;;;;;;;;;;6216973;23;20013;-88
2022/04/13 11:05:32;;;;;;;20.77;13.15;;;;;;;;;;6216613;23;20336;-88
2022/04/13 11:08:28;;;;;;;21.77;14.98;;;;;;;;;;6217558;23;19997;-86
2022/04/13 11:10:54;;;;;;;20.45;15.02;;;;;;;;;;6213748;23;20004;-85
2022/04/13 11:13:20;;;;;;;19.02;14.02;;;;;;;;;;6216515;23;20004;-87
2022/04/13 11:15:50;;;;;;;17.98;14.60;;;;;;;;;;6215286;23;20005;-87
2022/04/13 11:18:17;;;;;;;20.38;13.85;;;;;;;;;;6216687;23;20005;-85
2022/04/13 11:20:58;;;;;;;21.65;15.20;;;;;;;;;;6190103;23;20007;-86
2022/04/13 11:23:43;;;;;;;19.48;14.88;;;;;;;;;;6216331;23;20004;-84
2022/04/13 11:26:09;;;;;;;18.08;12.45;;;;;;;;;;6189814;23;20495;-85
2022/04/13 11:28:35;;;;;;;19.90;13.05;;;;;;;;;;6216136;23;20024;-86
2022/04/13 11:31:11;;;;;;;15.32;11.95;;;;;;;;;;6189549;23;20032;-84
2022/04/13 11:33:51;;;;;;;18.92;14.40;;;;;;;;;;6216301;23;20328;-84
2022/04/13 11:36:21;;;;;;;19.40;13.95;;;;;;;;;;6189632;23;20328;-81
2022/04/13 11:38:52;;;;;;;17.23;13.43;;;;;;;;;;6216242;23;20084;-83
2022/04/13 11:41:19;;;;;;;19.77;15.80;;;;;;;;;;6216809;23;20009;-82
2022/04/13 11:43:45;;;;;;;21.40;16.25;;;;;;;;;;6216068;23;20008;-84
2022/04/13 11:46:39;;;;;;;20.45;15.30;;;;;;;;;;6216231;23;20007;-83
2022/04/13 11:49:10;;;;;;;18.83;13.80;;;;;;;;;;6216257;23;20028;-83
2022/04/13 11:51:36;;;;;;;18.88;14.48;;;;;;;;;;6216213;23;20443;-85
2022/04/13 16:58:25;;;;;;;16.42;10.23;;;;;;;;;;6185579;23;20051;-84
2022/04/13 17:00:50;;;;;;;20.85;11.30;;;;;;;;;;6190221;23;20440;-84
2022/04/13 17:03:16;;;;;;;18.05;10.25;;;;;;;;;;6191111;23;20044;-84
2022/04/13 17:05:41;;;;;;;18.42;10.80;;;;;;;;;;6217799;23;20412;-84
2022/04/13 17:08:07;;;;;;;17.48;9.93;;;;;;;;;;6217895;23;19996;-83
2022/04/13 17:10:33;;;;;;;18.55;9.80;;;;;;;;;;6217950;23;20059;-85
2022/04/13 17:13:01;;;;;;;19.00;10.52;;;;;;;;;;6218141;23;20017;-82
2022/04/13 17:15:26;;;;;;;24.60;13.55;;;;;;;;;;6217535;23;19997;-81
2022/04/13 17:17:53;;;;;;;33.50;18.10;;;;;;;;;;6217532;23;20012;-80
2022/04/13 17:20:22;;;;;;;26.23;13.60;;;;;;;;;;6218466;23;20016;-84
2022/04/13 17:22:49;;;;;;;37.90;31.42;;;;;;;;;;6217791;23;20076;-82
2022/04/13 17:25:15;;;;;;;24.75;12.65;;;;;;;;;;6217759;23;20363;-83
2022/04/13 17:27:40;;;;;;;21.30;10.05;;;;;;;;;;6217367;23;20047;-82
2022/04/13 17:30:06;;;;;;;20.30;10.73;;;;;;;;;;6217446;23;20000;-82
2022/04/13 17:32:32;;;;;;;19.88;10.68;;;;;;;;;;6217708;23;20416;-81
2022/04/13 17:34:57;;;;;;;35.22;29.15;;;;;;;;;;6190759;23;20004;-81
2022/04/13 17:37:23;;;;;;;18.05;10.25;;;;;;;;;;6217565;23;20412;-84
2022/04/13 17:39:49;;;;;;;24.15;11.90;;;;;;;;;;6217410;23;20005;-82
2022/04/13 17:42:15;;;;;;;19.67;11.32;;;;;;;;;;6217359;23;20001;-84
2022/04/13 17:44:40;;;;;;;17.17;10.18;;;;;;;;;;6217302;23;20008;-84
2022/04/13 17:47:06;;;;;;;18.77;9.05;;;;;;;;;;6217294;23;20316;-84
2022/04/13 17:49:31;;;;;;;17.55;9.68;;;;;;;;;;6217360;23;20446;-85
2022/04/13 17:51:57;;;;;;;19.55;9.88;;;;;;;;;;6217441;23;20051;-82
2022/04/13 17:54:24;;;;;;;16.45;9.40;;;;;;;;;;6217267;23;20004;-85
2022/04/13 17:56:50;;;;;;;24.15;16.98;;;;;;;;;;6217237;23;20336;-85
2022/04/13 17:59:22;;;;;;;24.50;15.75;;;;;;;;;;6217298;23;20016;-85
2022/04/13 18:01:52;;;;;;;20.63;9.48;;;;;;;;;;6215236;23;20016;-86
2022/04/13 18:04:18;;;;;;;19.50;12.13;;;;;;;;;;6217214;23;20111;-84
2022/04/13 18:06:46;;;;;;;19.95;10.25;;;;;;;;;;6217130;23;20005;-81
2022/04/13 18:09:12;;;;;;;22.02;11.82;;;;;;;;;;6221440;23;20011;-92
2022/04/13 18:11:38;;;;;;;21.75;12.25;;;;;;;;;;6218474;23;20301;-86
2022/04/13 18:14:04;;;;;;;19.67;11.25;;;;;;;;;;6191108;23;20004;-88
2022/04/13 18:16:31;;;;;;;23.92;11.82;;;;;;;;;;6190910;23;20017;-89
2022/04/13 18:18:57;;;;;;;21.58;10.57;;;;;;;;;;6191037;23;20008;-86
2022/04/13 18:21:22;;;;;;;20.17;11.52;;;;;;;;;;6190774;23;20301;-92
2022/04/13 18:23:48;;;;;;;25.75;16.48;;;;;;;;;;6217489;23;20063;-87
2022/04/13 18:26:14;;;;;;;20.52;11.32;;;;;;;;;;6190527;23;20004;-88
2022/04/13 18:28:40;;;;;;;20.15;12.30;;;;;;;;;;6217217;23;20003;-87
2022/04/13 18:31:05;;;;;;;20.17;12.40;;;;;;;;;;6190434;23;20141;-85
2022/04/13 18:33:38;;;;;;;20.50;11.32;;;;;;;;;;6217407;23;19997;-88
2022/04/13 18:36:05;;;;;;;24.70;13.30;;;;;;;;;;6190758;23;20085;-89
2022/04/13 18:38:31;;;;;;;18.40;11.38;;;;;;;;;;6190611;23;20005;-89
2022/04/13 18:40:57;;;;;;;22.58;16.67;;;;;;;;;;6217115;23;20047;-79
2022/04/13 18:43:22;;;;;;;24.67;14.30;;;;;;;;;;6217493;23;20039;-89
2022/04/13 18:45:48;;;;;;;20.67;12.35;;;;;;;;;;6191507;23;20483;-95
2022/04/13 18:48:14;;;;;;;24.08;13.40;;;;;;;;;;6192641;23;20386;-93
2022/04/13 18:50:39;;;;;;;21.75;14.70;;;;;;;;;;6192683;23;20008;-92
2022/04/13 18:53:05;;;;;;;22.63;12.50;;;;;;;;;;6192377;23;20015;-92
2022/04/13 18:55:31;;;;;;;17.77;10.52;;;;;;;;;;6192777;23;20058;-94
2022/04/13 18:57:57;;;;;;;21.38;11.40;;;;;;;;;;6191927;23;20009;-93
2022/04/13 19:00:23;;;;;;;21.25;12.52;;;;;;;;;;6187407;23;20083;-92
2022/04/13 19:02:48;;;;;;;20.85;13.05;;;;;;;;;;6187549;23;20009;-93
2022/04/13 19:05:14;;;;;;;15.93;9.32;;;;;;;;;;6186877;23;20436;-94
2022/04/13 19:07:39;;;;;;;26.73;13.02;;;;;;;;;;6186106;23;20440;-93
2022/04/13 19:10:06;;;;;;;19.65;10.00;;;;;;;;;;6186009;23;20032;-91
2022/04/13 19:12:32;;;;;;;20.25;10.73;;;;;;;;;;6185989;23;20009;-93
2022/04/13 19:14:58;;;;;;;22.60;12.85;;;;;;;;;;6185953;23;20013;-93
2022/04/13 19:17:24;;;;;;;19.65;13.05;;;;;;;;;;6186030;23;20496;-93
2022/04/13 19:19:50;;;;;;;20.13;12.57;;;;;;;;;;6186149;23;20143;-92
2022/04/13 19:22:17;;;;;;;28.55;16.10;;;;;;;;;;6186009;23;20008;-93
2022/04/13 19:24:43;;;;;;;21.48;11.95;;;;;;;;;;6187387;23;20080;-93
2022/04/13 19:27:08;;;;;;;16.80;9.02;;;;;;;;;;6186322;23;20048;-93
2022/04/13 19:29:36;;;;;;;15.82;8.35;;;;;;;;;;6186306;23;20001;-93
2022/04/13 19:32:01;;;;;;;15.48;10.23;;;;;;;;;;6187596;23;20083;-92
2022/04/13 19:34:28;;;;;;;26.27;15.15;;;;;;;;;;6187015;23;20028;-93
2022/04/13 19:36:58;;;;;;;23.58;13.93;;;;;;;;;;6186406;23;20005;-93
2022/04/13 19:39:24;;;;;;;36.63;26.80;;;;;;;;;;6186205;23;20005;-93
2022/04/13 19:41:50;;;;;;;25.17;18.48;;;;;;;;;;6188177;23;20005;-91
2022/04/13 19:44:16;;;;;;;19.15;11.43;;;;;;;;;;6189455;23;20016;-90
2022/04/13 19:46:41;;;;;;;18.52;10.70;;;;;;;;;;6198859;23;20005;-93
2022/04/13 19:49:07;;;;;;;15.57;9.07;;;;;;;;;;6200466;23;20425;-90
2022/04/13 19:51:33;;;;;;;16.15;9.38;;;;;;;;;;6190800;23;20011;-91
2022/04/13 19:53:59;;;;;;;14.25;9.25;;;;;;;;;;6206132;23;20068;-92
2022/04/13 19:56:24;;;;;;;19.35;9.30;;;;;;;;;;6201257;23;20325;-91
2022/04/13 19:58:50;;;;;;;13.68;8.45;;;;;;;;;;6203509;23;20009;-89
2022/04/13 20:01:15;;;;;;;14.07;8.57;;;;;;;;;;6204285;23;20015;-89
2022/04/13 20:03:45;;;;;;;14.95;9.25;;;;;;;;;;6230250;23;20005;-87
2022/04/13 20:06:11;;;;;;;;;;;;;;;;;;6231654;23;20012;-87
2022/04/13 20:08:36;;;;;;;17.30;9.15;;;;;;;;;;6230137;23;19908;-89
2022/04/13 20:11:02;;;;;;;16.42;10.32;;;;;;;;;;6204756;23;20438;-88
2022/04/13 20:13:28;;;;;;;17.63;9.73;;;;;;;;;;6202829;23;20005;-90
2022/04/13 20:15:53;;;;;;;16.08;9.05;;;;;;;;;;6200053;23;20004;-90
2022/04/13 20:18:19;;;;;;;15.50;9.60;;;;;;;;;;6202134;23;20012;-90
2022/04/13 20:20:45;;;;;;;15.65;10.20;;;;;;;;;;6197404;23;20009;-92
2022/04/13 20:23:11;;;;;;;13.30;8.82;;;;;;;;;;6196864;23;20012;-92
2022/04/13 20:25:36;;;;;;;16.83;9.68;;;;;;;;;;6194217;23;20095;-93
2022/04/13 20:28:04;;;;;;;16.80;9.77;;;;;;;;;;6196847;23;20381;-92
2022/04/13 20:30:30;;;;;;;17.70;9.45;;;;;;;;;;6194358;23;20005;-91
2022/04/13 20:32:56;;;;;;;19.52;10.05;;;;;;;;;;6194390;23;20008;-91
2022/04/13 20:35:22;;;;;;;17.10;9.55;;;;;;;;;;6193530;23;20008;-92
2022/04/13 20:38:03;;;;;;;14.88;9.55;;;;;;;;;;6219692;23;20000;-91
2022/04/13 20:40:37;;;;;;;19.60;10.18;;;;;;;;;;6193979;23;20001;-90
2022/04/13 20:43:05;;;;;;;18.55;9.55;;;;;;;;;;6194868;23;20008;-91
2022/04/13 20:45:30;;;;;;;16.70;9.52;;;;;;;;;;6219967;23;19997;-92
2022/04/13 20:48:04;;;;;;;15.73;9.10;;;;;;;;;;6192775;23;20447;-93
2022/04/13 20:50:29;;;;;;;17.70;9.57;;;;;;;;;;6192763;23;20017;-92
2022/04/13 20:52:55;;;;;;;15.38;8.75;;;;;;;;;;6219029;23;20027;-92
2022/04/13 20:55:20;;;;;;;16.50;9.52;;;;;;;;;;6192416;23;20013;-89
2022/04/13 20:57:46;;;;;;;18.77;10.25;;;;;;;;;;6192762;23;20001;-90
2022/04/13 21:00:11;;;;;;;18.83;10.50;;;;;;;;;;6187025;23;20013;-89
2022/04/13 21:02:37;;;;;;;15.23;9.05;;;;;;;;;;6186932;23;20005;-89
2022/04/13 21:05:02;;;;;;;14.63;9.02;;;;;;;;;;6186370;23;20005;-89
2022/04/13 21:07:28;;;;;;;16.95;10.00;;;;;;;;;;6188399;23;20027;-90
2022/04/13 21:09:54;;;;;;;16.70;9.45;;;;;;;;;;6188736;23;20024;-88
2022/04/13 21:12:19;;;;;;;15.85;9.45;;;;;;;;;;6187073;23;20032;-90
2022/04/13 21:14:44;;;;;;;16.60;9.93;;;;;;;;;;6186535;23;20496;-88
2022/04/13 21:17:10;;;;;;;14.63;9.70;;;;;;;;;;6187297;23;20008;-90
2022/04/13 21:19:35;;;;;;;15.60;8.85;;;;;;;;;;6190298;23;20016;-90
2022/04/13 21:22:01;;;;;;;16.27;10.18;;;;;;;;;;6189009;23;20005;-89
2022/04/13 21:24:27;;;;;;;17.40;10.00;;;;;;;;;;6188974;23;20009;-90
2022/04/13 21:26:55;;;;;;;18.58;9.55;;;;;;;;;;6187119;23;20009;-89
2022/04/13 21:29:21;;;;;;;16.77;10.13;;;;;;;;;;6189074;23;20005;-89
2022/04/13 21:31:46;;;;;;;15.00;9.55;;;;;;;;;;6190269;23;20027;-90
2022/04/13 21:34:12;;;;;;;21.67;10.52;;;;;;;;;;6188800;23;20128;-92
2022/04/13 21:36:38;;;;;;;15.85;9.48;;;;;;;;;;6187352;23;20436;-89
2022/04/13 21:39:04;;;;;;;16.15;9.40;;;;;;;;;;6187828;23;20009;-91
